sensor_id;sensor_type;location;lat;lon;timestamp;pressure;altitude;pressure_sealevel;temperature;humidity
70434;BME280;57876;47.792;12.960;2023-03-19T00:01:52;96413.13;;;16.11;42.49
70434;BME280;57876;47.792;12.960;2023-03-19T00:04:16;96398.72;;;16.10;42.55
70434;BME280;57876;47.792;12.960;2023-03-19T00:06:41;96408.81;;;16.10;42.59
70434;BME280;57876;47.792;12.960;2023-03-19T00:09:05;96411.56;;;16.10;42.20
70434;BME280;57876;47.792;12.960;2023-03-19T00:11:30;96399.84;;;16.09;42.04
70434;BME280;57876;47.792;12.960;2023-03-19T00:13:54;96399.84;;;16.09;42.37
70434;BME280;57876;47.792;12.960;2023-03-19T00:16:19;96407.56;;;16.07;42.13
70434;BME280;57876;47.792;12.960;2023-03-19T00:18:43;96407.22;;;16.08;42.16
70434;BME280;57876;47.792;12.960;2023-03-19T00:21:08;96411.88;;;16.08;42.13
70434;BME280;57876;47.792;12.960;2023-03-19T00:23:33;96411.06;;;16.07;42.30
70434;BME280;57876;47.792;12.960;2023-03-19T00:25:57;96415.75;;;16.07;42.38
70434;BME280;57876;47.792;12.960;2023-03-19T00:28:22;96409.50;;;16.06;42.27
70434;BME280;57876;47.792;12.960;2023-03-19T00:30:46;96412.22;;;16.06;42.65
70434;BME280;57876;47.792;12.960;2023-03-19T00:33:10;96412.22;;;16.06;42.23
70434;BME280;57876;47.792;12.960;2023-03-19T00:35:35;96425.84;;;16.06;42.10
70434;BME280;57876;47.792;12.960;2023-03-19T00:37:59;96421.50;;;16.05;42.13
70434;BME280;57876;47.792;12.960;2023-03-19T00:40:24;96424.25;;;16.05;42.18
70434;BME280;57876;47.792;12.960;2023-03-19T00:42:48;96426.97;;;16.05;42.29
70434;BME280;57876;47.792;12.960;2023-03-19T00:45:12;96435.16;;;16.05;42.44
70434;BME280;57876;47.792;12.960;2023-03-19T00:47:37;96427.31;;;16.04;42.39
70434;BME280;57876;47.792;12.960;2023-03-19T00:50:03;96426.50;;;16.03;41.96
70434;BME280;57876;47.792;12.960;2023-03-19T00:52:27;96426.50;;;16.03;41.99
70434;BME280;57876;47.792;12.960;2023-03-19T00:54:52;96415.56;;;16.03;42.53
70434;BME280;57876;47.792;12.960;2023-03-19T00:57:16;96421.69;;;16.00;42.30
70434;BME280;57876;47.792;12.960;2023-03-19T00:59:40;96434.66;;;16.03;42.06
70434;BME280;57876;47.792;12.960;2023-03-19T01:02:05;96428.78;;;16.01;42.21
70434;BME280;57876;47.792;12.960;2023-03-19T01:04:30;96431.50;;;16.01;41.97
70434;BME280;57876;47.792;12.960;2023-03-19T01:06:54;96434.22;;;16.01;42.55
70434;BME280;57876;47.792;12.960;2023-03-19T01:09:19;96440.47;;;16.02;42.06
70434;BME280;57876;47.792;12.960;2023-03-19T01:11:43;96434.53;;;16.00;42.30
70434;BME280;57876;47.792;12.960;2023-03-19T01:14:08;96437.75;;;16.02;42.17
70434;BME280;57876;47.792;12.960;2023-03-19T01:16:32;96431.50;;;16.01;42.39
70434;BME280;57876;47.792;12.960;2023-03-19T01:18:57;96420.91;;;16.00;42.54
70434;BME280;57876;47.792;12.960;2023-03-19T01:21:22;96420.91;;;16.00;42.04
70434;BME280;57876;47.792;12.960;2023-03-19T01:23:46;96418.53;;;15.98;42.47
70434;BME280;57876;47.792;12.960;2023-03-19T01:26:10;96419.63;;;15.97;42.07
70434;BME280;57876;47.792;12.960;2023-03-19T01:28:36;96418.53;;;15.98;42.20
70434;BME280;57876;47.792;12.960;2023-03-19T01:31:03;96422.84;;;15.99;41.99
70434;BME280;57876;47.792;12.960;2023-03-19T01:33:28;96416.59;;;15.99;42.37
70434;BME280;57876;47.792;12.960;2023-03-19T01:35:53;96418.53;;;15.98;42.33
70434;BME280;57876;47.792;12.960;2023-03-19T01:38:18;96421.56;;;15.97;42.12
70434;BME280;57876;47.792;12.960;2023-03-19T01:40:46;96422.34;;;15.97;42.24
70434;BME280;57876;47.792;12.960;2023-03-19T01:45:42;96427.81;;;15.97;42.49
70434;BME280;57876;47.792;12.960;2023-03-19T01:48:16;96423.81;;;15.95;42.19
70434;BME280;57876;47.792;12.960;2023-03-19T01:50:44;96434.41;;;15.96;41.99
70434;BME280;57876;47.792;12.960;2023-03-19T01:53:11;96421.75;;;15.92;42.48
70434;BME280;57876;47.792;12.960;2023-03-19T01:55:37;96437.13;;;15.96;41.85
70434;BME280;57876;47.792;12.960;2023-03-19T01:58:04;96430.06;;;15.95;41.95
70434;BME280;57876;47.792;12.960;2023-03-19T02:00:29;96440.97;;;15.95;42.35
70434;BME280;57876;47.792;12.960;2023-03-19T02:02:58;96424.78;;;15.90;42.37
70434;BME280;57876;47.792;12.960;2023-03-19T02:05:24;96438.25;;;15.95;42.34
70434;BME280;57876;47.792;12.960;2023-03-19T02:07:51;96451.09;;;15.95;42.35
70434;BME280;57876;47.792;12.960;2023-03-19T02:10:16;96439.38;;;15.94;41.99
70434;BME280;57876;47.792;12.960;2023-03-19T02:12:41;96439.38;;;15.94;42.16
70434;BME280;57876;47.792;12.960;2023-03-19T02:15:07;96443.25;;;15.93;42.21
70434;BME280;57876;47.792;12.960;2023-03-19T02:17:31;96441.63;;;15.92;41.94
70434;BME280;57876;47.792;12.960;2023-03-19T02:20:03;96442.78;;;15.91;42.23
70434;BME280;57876;47.792;12.960;2023-03-19T02:22:32;96448.69;;;15.93;41.97
70434;BME280;57876;47.792;12.960;2023-03-19T02:25:11;96445.50;;;15.91;42.05
70434;BME280;57876;47.792;12.960;2023-03-19T02:27:38;96450.94;;;15.91;41.87
70434;BME280;57876;47.792;12.960;2023-03-19T02:30:31;96450.94;;;15.91;42.23
70434;BME280;57876;47.792;12.960;2023-03-19T02:32:56;96450.94;;;15.91;42.33
70434;BME280;57876;47.792;12.960;2023-03-19T02:35:20;96455.63;;;15.91;41.85
70434;BME280;57876;47.792;12.960;2023-03-19T02:37:45;96451.28;;;15.90;42.39
70434;BME280;57876;47.792;12.960;2023-03-19T02:40:17;96453.19;;;15.89;41.93
70434;BME280;57876;47.792;12.960;2023-03-19T02:42:43;96456.41;;;15.91;42.02
70434;BME280;57876;47.792;12.960;2023-03-19T02:45:07;96460.25;;;15.90;41.79
70434;BME280;57876;47.792;12.960;2023-03-19T02:47:32;96463.78;;;15.91;41.93
70434;BME280;57876;47.792;12.960;2023-03-19T02:49:57;96468.44;;;15.90;42.05
70434;BME280;57876;47.792;12.960;2023-03-19T02:52:21;96464.09;;;15.89;41.95
70434;BME280;57876;47.792;12.960;2023-03-19T02:54:46;96466.84;;;15.89;42.07
70434;BME280;57876;47.792;12.960;2023-03-19T02:57:12;96471.16;;;15.90;42.16
70434;BME280;57876;47.792;12.960;2023-03-19T02:59:36;96476.59;;;15.90;42.24
70434;BME280;57876;47.792;12.960;2023-03-19T03:02:02;96470.69;;;15.88;42.23
70434;BME280;57876;47.792;12.960;2023-03-19T03:04:26;96469.56;;;15.89;42.20
70434;BME280;57876;47.792;12.960;2023-03-19T03:06:52;96482.41;;;15.89;42.16
70434;BME280;57876;47.792;12.960;2023-03-19T03:09:17;96472.59;;;15.88;41.96
70434;BME280;57876;47.792;12.960;2023-03-19T03:11:41;96487.06;;;15.88;42.14
70434;BME280;57876;47.792;12.960;2023-03-19T03:14:06;96481.59;;;15.88;42.21
70434;BME280;57876;47.792;12.960;2023-03-19T03:16:31;96490.59;;;15.89;42.15
70434;BME280;57876;47.792;12.960;2023-03-19T03:18:56;96499.88;;;15.88;42.23
70434;BME280;57876;47.792;12.960;2023-03-19T03:21:20;96491.69;;;15.88;41.93
70434;BME280;57876;47.792;12.960;2023-03-19T03:23:44;96499.09;;;15.87;42.02
70434;BME280;57876;47.792;12.960;2023-03-19T03:26:09;96499.09;;;15.87;42.23
70434;BME280;57876;47.792;12.960;2023-03-19T03:28:33;96499.88;;;15.88;41.92
70434;BME280;57876;47.792;12.960;2023-03-19T03:30:58;96487.38;;;15.87;42.04
70434;BME280;57876;47.792;12.960;2023-03-19T03:33:23;96495.56;;;15.87;42.09
70434;BME280;57876;47.792;12.960;2023-03-19T03:35:48;96505.69;;;15.86;41.89
70434;BME280;57876;47.792;12.960;2023-03-19T03:38:12;96508.41;;;15.86;42.20
70434;BME280;57876;47.792;12.960;2023-03-19T03:40:37;96506.47;;;15.87;42.19
70434;BME280;57876;47.792;12.960;2023-03-19T03:43:01;96506.81;;;15.85;41.86
70434;BME280;57876;47.792;12.960;2023-03-19T03:45:25;96517.72;;;15.85;41.92
70434;BME280;57876;47.792;12.960;2023-03-19T03:47:50;96516.91;;;15.84;42.19
70434;BME280;57876;47.792;12.960;2023-03-19T03:50:15;96522.34;;;15.84;41.89
70434;BME280;57876;47.792;12.960;2023-03-19T03:52:40;96533.25;;;15.84;41.99
70434;BME280;57876;47.792;12.960;2023-03-19T03:55:05;96524.28;;;15.84;42.31
70434;BME280;57876;47.792;12.960;2023-03-19T03:57:30;96527.00;;;15.84;41.95
70434;BME280;57876;47.792;12.960;2023-03-19T03:59:55;96523.50;;;15.83;41.96
70434;BME280;57876;47.792;12.960;2023-03-19T04:02:19;96527.00;;;15.84;41.93
70434;BME280;57876;47.792;12.960;2023-03-19T04:04:44;96527.00;;;15.84;41.92
70434;BME280;57876;47.792;12.960;2023-03-19T04:07:09;96519.97;;;15.83;42.14
70434;BME280;57876;47.792;12.960;2023-03-19T04:09:33;96522.69;;;15.83;41.84
70434;BME280;57876;47.792;12.960;2023-03-19T04:11:58;96523.50;;;15.83;41.96
70434;BME280;57876;47.792;12.960;2023-03-19T04:14:22;96525.41;;;15.83;41.92
70434;BME280;57876;47.792;12.960;2023-03-19T04:16:46;96519.16;;;15.82;41.80
70434;BME280;57876;47.792;12.960;2023-03-19T04:19:11;96523.00;;;15.81;42.01
70434;BME280;57876;47.792;12.960;2023-03-19T04:21:35;96524.63;;;15.82;41.77
70434;BME280;57876;47.792;12.960;2023-03-19T04:24:00;96527.34;;;15.82;42.00
70434;BME280;57876;47.792;12.960;2023-03-19T04:26:25;96523.78;;;15.82;42.20
70434;BME280;57876;47.792;12.960;2023-03-19T04:28:50;96526.53;;;15.82;42.10
70434;BME280;57876;47.792;12.960;2023-03-19T04:31:14;96529.25;;;15.82;42.00
70434;BME280;57876;47.792;12.960;2023-03-19T04:33:39;96533.91;;;15.81;41.84
70434;BME280;57876;47.792;12.960;2023-03-19T04:36:04;96533.13;;;15.81;41.88
70434;BME280;57876;47.792;12.960;2023-03-19T04:38:29;96529.25;;;15.82;41.86
70434;BME280;57876;47.792;12.960;2023-03-19T04:40:54;96527.66;;;15.81;42.07
70434;BME280;57876;47.792;12.960;2023-03-19T04:43:19;96536.97;;;15.80;41.67
70434;BME280;57876;47.792;12.960;2023-03-19T04:45:44;96534.25;;;15.80;41.81
70434;BME280;57876;47.792;12.960;2023-03-19T04:48:08;96538.56;;;15.81;42.03
70434;BME280;57876;47.792;12.960;2023-03-19T04:50:33;96523.34;;;15.80;42.04
70434;BME280;57876;47.792;12.960;2023-03-19T04:52:57;96525.25;;;15.79;41.99
70434;BME280;57876;47.792;12.960;2023-03-19T04:55:22;96522.53;;;15.79;41.89
70434;BME280;57876;47.792;12.960;2023-03-19T04:57:46;96515.97;;;15.80;42.13
70434;BME280;57876;47.792;12.960;2023-03-19T05:00:11;96530.69;;;15.79;41.66
70434;BME280;57876;47.792;12.960;2023-03-19T05:02:37;96526.38;;;15.78;42.12
70434;BME280;57876;47.792;12.960;2023-03-19T05:05:02;96528.81;;;15.80;42.00
70434;BME280;57876;47.792;12.960;2023-03-19T05:07:26;96536.16;;;15.79;41.85
70434;BME280;57876;47.792;12.960;2023-03-19T05:09:51;96545.47;;;15.78;42.04
70434;BME280;57876;47.792;12.960;2023-03-19T05:12:15;96544.34;;;15.79;41.75
70434;BME280;57876;47.792;12.960;2023-03-19T05:14:39;96546.75;;;15.81;41.84
70434;BME280;57876;47.792;12.960;2023-03-19T05:17:04;96550.63;;;15.80;42.03
70434;BME280;57876;47.792;12.960;2023-03-19T05:19:28;96547.06;;;15.79;41.97
70434;BME280;57876;47.792;12.960;2023-03-19T05:21:53;96557.19;;;15.79;41.76
70434;BME280;57876;47.792;12.960;2023-03-19T05:24:17;96551.72;;;15.79;42.07
70434;BME280;57876;47.792;12.960;2023-03-19T05:26:41;96561.53;;;15.80;41.79
70434;BME280;57876;47.792;12.960;2023-03-19T05:29:06;96561.84;;;15.78;41.99
70434;BME280;57876;47.792;12.960;2023-03-19T05:31:33;96565.34;;;15.79;41.69
70434;BME280;57876;47.792;12.960;2023-03-19T05:33:58;96561.84;;;15.78;41.72
70434;BME280;57876;47.792;12.960;2023-03-19T05:36:22;96562.63;;;15.79;42.02
70434;BME280;57876;47.792;12.960;2023-03-19T05:38:47;96570.00;;;15.78;41.94
70434;BME280;57876;47.792;12.960;2023-03-19T05:41:12;96571.94;;;15.78;41.80
70434;BME280;57876;47.792;12.960;2023-03-19T05:43:36;96575.16;;;15.80;41.75
70434;BME280;57876;47.792;12.960;2023-03-19T05:46:00;96574.81;;;15.81;41.54
70434;BME280;57876;47.792;12.960;2023-03-19T05:48:25;96577.53;;;15.81;41.72
70434;BME280;57876;47.792;12.960;2023-03-19T05:50:49;96580.28;;;15.81;41.74
70434;BME280;57876;47.792;12.960;2023-03-19T05:53:14;96597.91;;;15.84;41.96
70434;BME280;57876;47.792;12.960;2023-03-19T05:55:38;96597.91;;;15.84;41.97
70434;BME280;57876;47.792;12.960;2023-03-19T05:58:02;96601.13;;;15.86;42.03
70434;BME280;57876;47.792;12.960;2023-03-19T06:00:27;96589.41;;;15.85;41.63
70434;BME280;57876;47.792;12.960;2023-03-19T06:02:51;96592.59;;;15.88;41.87
70434;BME280;57876;47.792;12.960;2023-03-19T06:05:16;96594.22;;;15.89;42.06
70434;BME280;57876;47.792;12.960;2023-03-19T06:07:40;96595.00;;;15.89;41.77
70434;BME280;57876;47.792;12.960;2023-03-19T06:10:06;96596.94;;;15.89;41.54
70434;BME280;57876;47.792;12.960;2023-03-19T06:12:31;96600.16;;;15.91;41.88
70434;BME280;57876;47.792;12.960;2023-03-19T06:14:55;96598.22;;;15.91;42.06
70434;BME280;57876;47.792;12.960;2023-03-19T06:17:20;96609.13;;;15.91;42.02
70434;BME280;57876;47.792;12.960;2023-03-19T06:19:44;96617.81;;;15.93;41.75
70434;BME280;57876;47.792;12.960;2023-03-19T06:22:09;96616.19;;;15.92;41.75
70434;BME280;57876;47.792;12.960;2023-03-19T06:24:34;96617.31;;;15.91;41.70
70434;BME280;57876;47.792;12.960;2023-03-19T06:26:58;96613.47;;;15.92;42.03
70434;BME280;57876;47.792;12.960;2023-03-19T06:29:23;96620.19;;;15.95;41.84
70434;BME280;57876;47.792;12.960;2023-03-19T06:31:47;96635.75;;;15.94;42.12
70434;BME280;57876;47.792;12.960;2023-03-19T06:34:12;96636.56;;;15.95;41.91
70434;BME280;57876;47.792;12.960;2023-03-19T06:36:36;96642.81;;;15.95;42.12
70434;BME280;57876;47.792;12.960;2023-03-19T06:39:01;96641.69;;;15.96;41.89
70434;BME280;57876;47.792;12.960;2023-03-19T06:41:26;96643.63;;;15.96;42.02
70434;BME280;57876;47.792;12.960;2023-03-19T06:43:50;96632.38;;;15.97;42.02
70434;BME280;57876;47.792;12.960;2023-03-19T06:46:14;96638.97;;;15.96;41.95
70434;BME280;57876;47.792;12.960;2023-03-19T06:48:39;96647.16;;;15.96;41.73
70434;BME280;57876;47.792;12.960;2023-03-19T06:51:04;96642.19;;;15.98;41.73
70434;BME280;57876;47.792;12.960;2023-03-19T06:53:29;96652.28;;;15.98;42.02
70434;BME280;57876;47.792;12.960;2023-03-19T06:55:53;96640.56;;;15.97;42.00
70434;BME280;57876;47.792;12.960;2023-03-19T06:58:18;96656.94;;;15.97;41.91
70434;BME280;57876;47.792;12.960;2023-03-19T07:00:42;96653.09;;;15.98;41.73
70434;BME280;57876;47.792;12.960;2023-03-19T07:03:08;96647.94;;;15.97;41.73
70434;BME280;57876;47.792;12.960;2023-03-19T07:05:33;96658.72;;;15.93;42.15
70434;BME280;57876;47.792;12.960;2023-03-19T07:07:58;96658.06;;;15.96;42.01
70434;BME280;57876;47.792;12.960;2023-03-19T07:10:22;96666.25;;;15.96;41.79
70434;BME280;57876;47.792;12.960;2023-03-19T07:12:46;96668.97;;;15.96;42.37
70434;BME280;57876;47.792;12.960;2023-03-19T07:15:11;96665.47;;;15.96;42.10
70434;BME280;57876;47.792;12.960;2023-03-19T07:17:35;96665.91;;;15.98;42.36
70434;BME280;57876;47.792;12.960;2023-03-19T07:20:00;96673.16;;;15.94;42.18
70434;BME280;57876;47.792;12.960;2023-03-19T07:22:24;96666.25;;;15.96;41.96
70434;BME280;57876;47.792;12.960;2023-03-19T07:24:48;96668.63;;;15.98;42.20
70434;BME280;57876;47.792;12.960;2023-03-19T07:27:14;96672.66;;;16.00;42.31
70434;BME280;57876;47.792;12.960;2023-03-19T07:29:39;96666.75;;;15.98;42.32
70434;BME280;57876;47.792;12.960;2023-03-19T07:32:04;96668.81;;;16.01;42.21
70434;BME280;57876;47.792;12.960;2023-03-19T07:34:28;96672.66;;;16.00;42.23
70434;BME280;57876;47.792;12.960;2023-03-19T07:36:53;96680.84;;;16.00;42.49
70434;BME280;57876;47.792;12.960;2023-03-19T07:39:18;96680.53;;;16.02;41.92
70434;BME280;57876;47.792;12.960;2023-03-19T07:41:42;96689.50;;;16.02;42.05
70434;BME280;57876;47.792;12.960;2023-03-19T07:44:07;96678.59;;;16.02;42.25
70434;BME280;57876;47.792;12.960;2023-03-19T07:46:32;96682.13;;;16.03;42.30
70434;BME280;57876;47.792;12.960;2023-03-19T07:48:56;96686.47;;;16.04;42.15
70434;BME280;57876;47.792;12.960;2023-03-19T07:51:21;96685.97;;;16.02;42.24
70434;BME280;57876;47.792;12.960;2023-03-19T07:53:45;96699.28;;;16.03;41.94
70434;BME280;57876;47.792;12.960;2023-03-19T07:56:10;96702.00;;;16.03;42.28
70434;BME280;57876;47.792;12.960;2023-03-19T07:58:35;96701.69;;;16.05;42.26
70434;BME280;57876;47.792;12.960;2023-03-19T08:00:59;96706.00;;;16.06;41.89
70434;BME280;57876;47.792;12.960;2023-03-19T08:03:24;96707.16;;;16.05;41.84
70434;BME280;57876;47.792;12.960;2023-03-19T08:05:49;96698.97;;;16.05;42.32
70434;BME280;57876;47.792;12.960;2023-03-19T08:08:13;96696.25;;;16.05;41.92
70434;BME280;57876;47.792;12.960;2023-03-19T08:10:38;96701.69;;;16.05;42.06
70434;BME280;57876;47.792;12.960;2023-03-19T08:13:02;96702.50;;;16.05;41.98
70434;BME280;57876;47.792;12.960;2023-03-19T08:15:28;96697.03;;;16.05;41.87
70434;BME280;57876;47.792;12.960;2023-03-19T08:17:57;96692.72;;;16.04;42.19
70434;BME280;57876;47.792;12.960;2023-03-19T08:20:21;96698.66;;;16.06;42.34
70434;BME280;57876;47.792;12.960;2023-03-19T08:22:48;96695.09;;;16.06;42.11
70434;BME280;57876;47.792;12.960;2023-03-19T08:25:12;96695.09;;;16.06;42.22
70434;BME280;57876;47.792;12.960;2023-03-19T08:27:47;96694.31;;;16.05;42.10
70434;BME280;57876;47.792;12.960;2023-03-19T08:30:12;96690.00;;;16.04;42.08
70434;BME280;57876;47.792;12.960;2023-03-19T08:32:37;96690.47;;;16.06;41.95
70434;BME280;57876;47.792;12.960;2023-03-19T08:35:02;96698.66;;;16.06;42.04
70434;BME280;57876;47.792;12.960;2023-03-19T08:37:27;96707.31;;;16.08;42.31
70434;BME280;57876;47.792;12.960;2023-03-19T08:39:51;96708.44;;;16.07;41.87
70434;BME280;57876;47.792;12.960;2023-03-19T08:42:17;96701.84;;;16.08;42.11
70434;BME280;57876;47.792;12.960;2023-03-19T08:44:41;96705.72;;;16.07;41.92
70434;BME280;57876;47.792;12.960;2023-03-19T08:47:06;96702.66;;;16.09;41.89
70434;BME280;57876;47.792;12.960;2023-03-19T08:49:30;96701.84;;;16.08;42.30
70434;BME280;57876;47.792;12.960;2023-03-19T08:51:54;96701.84;;;16.08;42.05
70434;BME280;57876;47.792;12.960;2023-03-19T08:54:19;96701.53;;;16.10;42.28
70434;BME280;57876;47.792;12.960;2023-03-19T08:56:43;96704.25;;;16.10;42.17
70434;BME280;57876;47.792;12.960;2023-03-19T08:59:08;96697.22;;;16.09;41.96
70434;BME280;57876;47.792;12.960;2023-03-19T09:01:33;96696.06;;;16.10;41.92
70434;BME280;57876;47.792;12.960;2023-03-19T09:03:57;96705.84;;;16.11;42.05
70434;BME280;57876;47.792;12.960;2023-03-19T09:06:21;96704.25;;;16.10;42.27
70434;BME280;57876;47.792;12.960;2023-03-19T09:08:46;96707.00;;;16.10;42.14
70434;BME280;57876;47.792;12.960;2023-03-19T09:11:10;96708.91;;;16.10;42.02
70434;BME280;57876;47.792;12.960;2023-03-19T09:13:35;96710.50;;;16.11;41.91
70434;BME280;57876;47.792;12.960;2023-03-19T09:16:00;96709.72;;;16.10;42.10
70434;BME280;57876;47.792;12.960;2023-03-19T09:18:24;96713.25;;;16.11;41.91
70434;BME280;57876;47.792;12.960;2023-03-19T09:20:49;96710.50;;;16.11;42.22
70434;BME280;57876;47.792;12.960;2023-03-19T09:23:14;96713.25;;;16.11;41.94
70434;BME280;57876;47.792;12.960;2023-03-19T09:25:38;96707.78;;;16.11;42.05
70434;BME280;57876;47.792;12.960;2023-03-19T09:28:03;96706.19;;;16.10;42.26
70434;BME280;57876;47.792;12.960;2023-03-19T09:30:28;96710.50;;;16.11;42.05
70434;BME280;57876;47.792;12.960;2023-03-19T09:32:52;96715.50;;;16.08;41.96
70434;BME280;57876;47.792;12.960;2023-03-19T09:35:16;96708.91;;;16.10;41.97
70434;BME280;57876;47.792;12.960;2023-03-19T09:37:41;96709.41;;;16.12;42.21
70434;BME280;57876;47.792;12.960;2023-03-19T09:40:06;96713.72;;;16.13;42.07
70434;BME280;57876;47.792;12.960;2023-03-19T09:45:12;96705.84;;;16.11;42.09
70434;BME280;57876;47.792;12.960;2023-03-19T09:47:37;96702.03;;;16.12;41.87
70434;BME280;57876;47.792;12.960;2023-03-19T09:50:11;96706.34;;;16.13;42.17
70434;BME280;57876;47.792;12.960;2023-03-19T09:57:48;96716.94;;;16.15;42.04
70434;BME280;57876;47.792;12.960;2023-03-19T10:02:42;96727.03;;;16.14;41.76
70434;BME280;57876;47.792;12.960;2023-03-19T10:11:05;96721.56;;;16.14;42.31
70434;BME280;57876;47.792;12.960;2023-03-19T10:16:33;96728.50;;;16.12;41.88
70434;BME280;57876;47.792;12.960;2023-03-19T10:19:03;96727.84;;;16.15;42.14
70434;BME280;57876;47.792;12.960;2023-03-19T10:21:36;96734.91;;;16.16;41.90
70434;BME280;57876;47.792;12.960;2023-03-19T10:24:12;96732.19;;;16.16;42.14
70434;BME280;57876;47.792;12.960;2023-03-19T10:26:38;96737.63;;;16.16;42.13
70434;BME280;57876;47.792;12.960;2023-03-19T10:31:55;96747.41;;;16.17;41.77
70434;BME280;57876;47.792;12.960;2023-03-19T10:34:33;96745.81;;;16.16;42.04
70434;BME280;57876;47.792;12.960;2023-03-19T10:39:25;96751.28;;;16.16;42.15
70434;BME280;57876;47.792;12.960;2023-03-19T10:41:59;96736.50;;;16.17;42.30
70434;BME280;57876;47.792;12.960;2023-03-19T10:44:30;96741.97;;;16.17;42.26
70434;BME280;57876;47.792;12.960;2023-03-19T10:47:03;96757.53;;;16.16;41.97
70434;BME280;57876;47.792;12.960;2023-03-19T10:49:34;96737.63;;;16.16;42.04
70434;BME280;57876;47.792;12.960;2023-03-19T10:51:59;96747.91;;;16.19;42.00
70434;BME280;57876;47.792;12.960;2023-03-19T10:54:25;96739.56;;;16.15;42.29
70434;BME280;57876;47.792;12.960;2023-03-19T10:56:54;96738.13;;;16.18;42.27
70434;BME280;57876;47.792;12.960;2023-03-19T10:59:35;96738.13;;;16.18;41.77
70434;BME280;57876;47.792;12.960;2023-03-19T11:02:15;96744.06;;;16.20;42.39
70434;BME280;57876;47.792;12.960;2023-03-19T11:04:39;96738.63;;;16.20;42.12
70434;BME280;57876;47.792;12.960;2023-03-19T11:07:12;96736.19;;;16.18;42.08
70434;BME280;57876;47.792;12.960;2023-03-19T11:09:55;96742.13;;;16.20;42.38
70434;BME280;57876;47.792;12.960;2023-03-19T11:12:26;96741.34;;;16.20;42.41
70434;BME280;57876;47.792;12.960;2023-03-19T11:14:57;96738.63;;;16.20;41.98
70434;BME280;57876;47.792;12.960;2023-03-19T11:17:34;96737.00;;;16.19;42.48
70434;BME280;57876;47.792;12.960;2023-03-19T11:22:54;96742.13;;;16.20;42.04
70434;BME280;57876;47.792;12.960;2023-03-19T11:25:26;96742.94;;;16.21;41.86
70434;BME280;57876;47.792;12.960;2023-03-19T11:28:22;96749.53;;;16.20;41.92
70434;BME280;57876;47.792;12.960;2023-03-19T11:36:01;96738.63;;;16.20;42.17
70434;BME280;57876;47.792;12.960;2023-03-19T11:41:32;96730.44;;;16.20;42.00
70434;BME280;57876;47.792;12.960;2023-03-19T11:44:04;96734.91;;;16.16;42.39
70434;BME280;57876;47.792;12.960;2023-03-19T11:46:41;96740.84;;;16.18;42.38
70434;BME280;57876;47.792;12.960;2023-03-19T11:51:50;96735.06;;;16.19;41.93
70434;BME280;57876;47.792;12.960;2023-03-19T11:57:17;96732.31;;;16.19;42.31
70434;BME280;57876;47.792;12.960;2023-03-19T12:05:26;96722.56;;;16.18;41.89
70434;BME280;57876;47.792;12.960;2023-03-19T12:08:05;96729.28;;;16.21;42.04
70434;BME280;57876;47.792;12.960;2023-03-19T12:10:51;96726.56;;;16.21;41.99
70434;BME280;57876;47.792;12.960;2023-03-19T12:16:32;96731.53;;;16.19;42.33
70434;BME280;57876;47.792;12.960;2023-03-19T12:19:14;96728.97;;;16.22;42.18
70434;BME280;57876;47.792;12.960;2023-03-19T12:34:49;96724.63;;;16.21;42.30
70434;BME280;57876;47.792;12.960;2023-03-19T12:37:28;96720.63;;;16.19;41.81
70434;BME280;57876;47.792;12.960;2023-03-19T12:42:48;96714.19;;;16.23;42.25
70434;BME280;57876;47.792;12.960;2023-03-19T12:45:31;96708.75;;;16.23;42.38
70434;BME280;57876;47.792;12.960;2023-03-19T12:48:21;96697.81;;;16.23;42.06
70434;BME280;57876;47.792;12.960;2023-03-19T12:50:51;96695.41;;;16.22;42.31
70434;BME280;57876;47.792;12.960;2023-03-19T12:53:52;96693.16;;;16.24;42.41
70434;BME280;57876;47.792;12.960;2023-03-19T12:56:38;96681.44;;;16.23;42.39
70434;BME280;57876;47.792;12.960;2023-03-19T12:59:12;96687.72;;;16.24;42.44
70434;BME280;57876;47.792;12.960;2023-03-19T13:02:00;96681.44;;;16.23;41.97
70434;BME280;57876;47.792;12.960;2023-03-19T13:04:32;96679.03;;;16.22;42.51
70434;BME280;57876;47.792;12.960;2023-03-19T13:07:05;96677.59;;;16.24;42.06
70434;BME280;57876;47.792;12.960;2023-03-19T13:09:43;96676.31;;;16.22;41.97
70434;BME280;57876;47.792;12.960;2023-03-19T13:12:34;96682.25;;;16.24;42.22
70434;BME280;57876;47.792;12.960;2023-03-19T13:15:08;96677.94;;;16.23;42.35
70434;BME280;57876;47.792;12.960;2023-03-19T13:23:34;96676.78;;;16.24;42.48
70434;BME280;57876;47.792;12.960;2023-03-19T13:26:00;96672.47;;;16.23;41.90
70434;BME280;57876;47.792;12.960;2023-03-19T13:28:28;96681.13;;;16.25;42.22
70434;BME280;57876;47.792;12.960;2023-03-19T13:31:07;96677.59;;;16.24;42.08
70434;BME280;57876;47.792;12.960;2023-03-19T13:33:50;96682.25;;;16.24;42.15
70434;BME280;57876;47.792;12.960;2023-03-19T13:36:16;96683.88;;;16.25;42.48
70434;BME280;57876;47.792;12.960;2023-03-19T13:38:49;96683.88;;;16.25;42.61
70434;BME280;57876;47.792;12.960;2023-03-19T13:43:58;96685.47;;;16.26;42.04
70434;BME280;57876;47.792;12.960;2023-03-19T13:46:35;96683.03;;;16.24;42.34
70434;BME280;57876;47.792;12.960;2023-03-19T13:49:23;96682.25;;;16.24;42.07
70434;BME280;57876;47.792;12.960;2023-03-19T13:51:48;96682.72;;;16.26;42.17
70434;BME280;57876;47.792;12.960;2023-03-19T13:54:19;96684.31;;;16.27;42.39
70434;BME280;57876;47.792;12.960;2023-03-19T13:59:31;96681.13;;;16.25;42.22
70434;BME280;57876;47.792;12.960;2023-03-19T14:01:56;96685.47;;;16.26;42.47
70434;BME280;57876;47.792;12.960;2023-03-19T14:04:26;96675.34;;;16.26;42.33
70434;BME280;57876;47.792;12.960;2023-03-19T14:07:12;96675.69;;;16.25;42.05
70434;BME280;57876;47.792;12.960;2023-03-19T14:09:42;96678.41;;;16.25;42.52